Un Pendik — TCOD2 — position and weather

sailwx.info

Track history (hours):
 
Tides and Currents Weather Stations Pressure Air Temp Water Temp Dewpoint Dewpoint Depression Visibility Wind Speed Wind Dir Waves Ship Positions

Un Pendik

Last reported at 2015-Jul-03 13:34 UTC. Time now 2015-Jul-06 07:07 UTC.
Position N 36°31' E 024°55'.

; draft 6.5 m.

Type: Ship (hazmat cat A). MMSI: 271000792.

Date/timePositionNaut miles runAvg speedWind from/ knotsBaromVisibWave heightAir tempDewpointWater temp
2015-Jul-03 13:34N 36°31' E 024°55'2320.7
2015-Jul-03 12:28N 36°33' E 025°23'1920.8
2015-Jul-03 11:33N 36°31' E 025°46'2120.7
2015-Jul-03 10:33N 36°28' E 026°12'2020.7
2015-Jul-03 09:33N 36°27' E 026°38'2120.4
2015-Jul-03 08:33N 36°29' E 027°03'26520.4
2015-Jul-02 19:31N 35°59' E 032°30'231 5.0
2015-Jun-30 21:31N 36°29' E 027°46'2021.0
2015-Jun-30 20:33N 36°30' E 027°20'2120.8
2015-Jun-30 19:32N 36°32' E 026°54'2020.7
2015-Jun-30 18:33N 36°29' E 026°29'2020.2
2015-Jun-30 17:33N 36°29' E 026°04'2120.3
2015-Jun-30 16:32N 36°32' E 025°39'2020.4
2015-Jun-30 15:33N 36°32' E 025°14'2020.4
2015-Jun-30 14:33N 36°30' E 024°48'  
2015-Jun-26 11:12N 36°14' E 024°41'1320.3
2015-Jun-26 10:33N 36°13' E 024°57'2020.4
2015-Jun-26 09:34N 36°10' E 025°22'2020.3
2015-Jun-26 08:33N 36°09' E 025°47'2019.9
2015-Jun-26 07:32N 36°08' E 026°12'1919.9
2015-Jun-26 06:33N 36°06' E 026°36'5919.6
2015-Jun-26 03:33N 35°49' E 027°46'  
Track history (hours):
 
Tides and Currents Weather Stations Pressure Air Temp Water Temp Dewpoint Dewpoint Depression Visibility Wind Speed Wind Dir Waves Ship Positions

Un Pendik

Last reported at 2015-Jul-03 13:34 UTC. Time now 2015-Jul-06 07:07 UTC.
Position N 36°31' E 024°55'.

; draft 6.5 m.

Type: Ship (hazmat cat A). MMSI: 271000792.

Date/timePositionNaut miles runAvg speedWind from/ knotsBaromVisibWave heightAir tempDewpointWater temp
2015-Jul-03 13:34N 36°31' E 024°55'2320.7
2015-Jul-03 12:28N 36°33' E 025°23'1920.8
2015-Jul-03 11:33N 36°31' E 025°46'2120.7
2015-Jul-03 10:33N 36°28' E 026°12'2020.7
2015-Jul-03 09:33N 36°27' E 026°38'2120.4
2015-Jul-03 08:33N 36°29' E 027°03'26520.4
2015-Jul-02 19:31N 35°59' E 032°30'231 5.0
2015-Jun-30 21:31N 36°29' E 027°46'2021.0
2015-Jun-30 20:33N 36°30' E 027°20'2120.8
2015-Jun-30 19:32N 36°32' E 026°54'2020.7
2015-Jun-30 18:33N 36°29' E 026°29'2020.2
2015-Jun-30 17:33N 36°29' E 026°04'2120.3
2015-Jun-30 16:32N 36°32' E 025°39'2020.4
2015-Jun-30 15:33N 36°32' E 025°14'2020.4
2015-Jun-30 14:33N 36°30' E 024°48'  
2015-Jun-26 11:12N 36°14' E 024°41'1320.3
2015-Jun-26 10:33N 36°13' E 024°57'2020.4
2015-Jun-26 09:34N 36°10' E 025°22'2020.3
2015-Jun-26 08:33N 36°09' E 025°47'2019.9
2015-Jun-26 07:32N 36°08' E 026°12'1919.9
2015-Jun-26 06:33N 36°06' E 026°36'5919.6
2015-Jun-26 03:33N 35°49' E 027°46'  

Dump ship's entire track history